CheckWX is a tool to help pilots better visualize weather data.  It is not intended as a substitute for an official pre-flight weather briefing.

19:04:31 UTC

KDHN METAR
Dothan Regional Airport
Dothan, Alabama, USA
Current

58 mins ago

KDHN 221807Z 14005KT 10SM SCT014 OVC100 23/18 A3018 RMK AO2 T02330178
Observed
Feb-22 @ 18:07 UTC
Wind
  • 140° at 5 KTS
Visibility
10 SM
Flight Rules
VFR
Cloud Levels
  • Scattered at 1,400' AGL
  • Overcast at 10,000' AGL
Temperature
23°C / 73°F
Dewpoint
18°C / 64°F
Humidity
74%
Altimeter
30.18" Hg
Pressure
1022.02 hPa
Previous

1 hour ago

KDHN 221753Z 16007KT 10SM BKN013 OVC100 23/18 A3019 RMK AO2 SLP219 T02330183 10233 20200 58003
Observed
Feb-22 @ 17:53 UTC
Wind
  • 160° at 7 KTS
Visibility
10 SM
Flight Rules
MVFR
Cloud Levels
  • Broken at 1,300' AGL
  • Overcast at 10,000' AGL
Temperature
23°C / 73°F
Dewpoint
18°C / 64°F
Humidity
74%
Altimeter
30.19" Hg
Pressure
1021.9 hPa
Previous

2 hours ago

KDHN 221653Z 16008KT 10SM OVC010 22/18 A3021 RMK AO2 SLP226 T02170183
Observed
Feb-22 @ 16:53 UTC
Wind
  • 160° at 8 KTS
Visibility
10 SM
Flight Rules
MVFR
Cloud Levels
  • Overcast at 1,000' AGL
Temperature
22°C / 72°F
Dewpoint
18°C / 64°F
Humidity
78%
Altimeter
30.21" Hg
Pressure
1022.6 hPa